Paia, Hawaii
Current Conditions -  °F | °C
As of 1:54 AM on Tuesday 21 Oct 2014 (Local Time) from PHOG Reporting Station
Clear Clear  
Wind Chill: 71°   Ceiling: Unl
Heat Index: 71°   Visibility: 10mi
Dew Point: 68°   Wind: 0mph
Humidity: 90%   Direction: NA
Pressure: 29.99"   Gusts: NA
Location:  20.89°N, 156.36°W
Report Text: PHOG 211154Z AUTO 00000KT 10SM CLR 22/20 A2999 RMK AO2 SLP159 T02170200 10256 20217 58011 TSNO
Loading
Personal Weather Stations






























Interactive Weather Map
Tropical Storm Tracking
New forecast layout! Learn more

10-Day Weather Forecast

Advertisements
Track Severe Weather on mobile